sensor_id;sensor_type;location;lat;lon;timestamp;pressure;altitude;pressure_sealevel;temperature
24586;BMP280;12743;52.262;6.172;2022-09-09T00:02:22;100412.03;;;15.80
24586;BMP280;12743;52.262;6.172;2022-09-09T00:04:58;100405.53;;;15.70
24586;BMP280;12743;52.262;6.172;2022-09-09T00:15:51;100406.72;;;15.80
24586;BMP280;12743;52.262;6.172;2022-09-09T00:18:46;100415.53;;;15.91
24586;BMP280;12743;52.262;6.172;2022-09-09T00:21:17;100416.50;;;15.72
24586;BMP280;12743;52.262;6.172;2022-09-09T00:23:55;100417.22;;;15.66
24586;BMP280;12743;52.262;6.172;2022-09-09T00:26:35;100411.19;;;15.69
24586;BMP280;12743;52.262;6.172;2022-09-09T00:31:49;100399.31;;;15.52
24586;BMP280;12743;52.262;6.172;2022-09-09T00:34:22;100400.41;;;15.44
24586;BMP280;12743;52.262;6.172;2022-09-09T00:36:49;100404.53;;;15.45
24586;BMP280;12743;52.262;6.172;2022-09-09T00:39:38;100378.88;;;15.49
24586;BMP280;12743;52.262;6.172;2022-09-09T00:42:11;100391.38;;;15.52
24586;BMP280;12743;52.262;6.172;2022-09-09T00:53:22;100386.88;;;15.56
24586;BMP280;12743;52.262;6.172;2022-09-09T00:56:13;100379.38;;;15.65
24586;BMP280;12743;52.262;6.172;2022-09-09T00:58:54;100384.28;;;15.63
24586;BMP280;12743;52.262;6.172;2022-09-09T01:01:23;100379.34;;;15.62
24586;BMP280;12743;52.262;6.172;2022-09-09T01:03:56;100380.38;;;15.47
24586;BMP280;12743;52.262;6.172;2022-09-09T01:06:31;100374.00;;;15.51
24586;BMP280;12743;52.262;6.172;2022-09-09T01:17:11;100368.16;;;15.35
24586;BMP280;12743;52.262;6.172;2022-09-09T01:22:35;100364.00;;;15.34
24586;BMP280;12743;52.262;6.172;2022-09-09T01:28:16;100364.75;;;15.31
24586;BMP280;12743;52.262;6.172;2022-09-09T01:30:44;100357.91;;;15.26
24586;BMP280;12743;52.262;6.172;2022-09-09T01:33:16;100363.69;;;15.39
24586;BMP280;12743;52.262;6.172;2022-09-09T01:35:50;100365.59;;;15.42
24586;BMP280;12743;52.262;6.172;2022-09-09T01:38:21;100365.59;;;15.42
24586;BMP280;12743;52.262;6.172;2022-09-09T01:40:49;100363.19;;;15.26
24586;BMP280;12743;52.262;6.172;2022-09-09T01:43:20;100374.16;;;15.28
24586;BMP280;12743;52.262;6.172;2022-09-09T01:45:46;100365.78;;;15.23
24586;BMP280;12743;52.262;6.172;2022-09-09T01:48:13;100368.03;;;15.17
24586;BMP280;12743;52.262;6.172;2022-09-09T01:53:46;100372.50;;;15.10
24586;BMP280;12743;52.262;6.172;2022-09-09T01:56:44;100372.84;;;15.08
24586;BMP280;12743;52.262;6.172;2022-09-09T02:02:19;100365.28;;;15.07
24586;BMP280;12743;52.262;6.172;2022-09-09T02:08:08;100374.84;;;14.82
24586;BMP280;12743;52.262;6.172;2022-09-09T02:10:58;100367.28;;;14.84
24586;BMP280;12743;52.262;6.172;2022-09-09T02:13:36;100364.38;;;14.92
24586;BMP280;12743;52.262;6.172;2022-09-09T02:16:18;100372.66;;;14.91
24586;BMP280;12743;52.262;6.172;2022-09-09T02:18:53;100358.56;;;14.80
24586;BMP280;12743;52.262;6.172;2022-09-09T02:21:29;100340.56;;;14.56
24586;BMP280;12743;52.262;6.172;2022-09-09T02:23:58;100360.78;;;14.74
24586;BMP280;12743;52.262;6.172;2022-09-09T02:26:26;100362.09;;;14.91
24586;BMP280;12743;52.262;6.172;2022-09-09T02:29:21;100359.09;;;14.96
24586;BMP280;12743;52.262;6.172;2022-09-09T02:31:49;100355.34;;;14.97
24586;BMP280;12743;52.262;6.172;2022-09-09T02:34:21;100352.28;;;14.91
24586;BMP280;12743;52.262;6.172;2022-09-09T02:36:50;100353.81;;;14.96
24586;BMP280;12743;52.262;6.172;2022-09-09T02:39:17;100357.66;;;14.98
24586;BMP280;12743;52.262;6.172;2022-09-09T02:41:59;100351.44;;;14.84
24586;BMP280;12743;52.262;6.172;2022-09-09T02:44:30;100344.25;;;14.84
24586;BMP280;12743;52.262;6.172;2022-09-09T02:47:04;100307.47;;;14.69
24586;BMP280;12743;52.262;6.172;2022-09-09T02:49:52;100353.50;;;15.01
24586;BMP280;12743;52.262;6.172;2022-09-09T02:55:01;100346.19;;;14.87
24586;BMP280;12743;52.262;6.172;2022-09-09T02:57:30;100340.22;;;14.61
24586;BMP280;12743;52.262;6.172;2022-09-09T02:59:58;100359.69;;;14.79
24586;BMP280;12743;52.262;6.172;2022-09-09T03:02:23;100367.84;;;14.67
24586;BMP280;12743;52.262;6.172;2022-09-09T03:04:53;100362.84;;;14.88
24586;BMP280;12743;52.262;6.172;2022-09-09T03:07:19;100363.06;;;14.76
24586;BMP280;12743;52.262;6.172;2022-09-09T03:09:46;100361.09;;;14.69
24586;BMP280;12743;52.262;6.172;2022-09-09T03:12:11;100339.31;;;14.49
24586;BMP280;12743;52.262;6.172;2022-09-09T03:14:38;100365.53;;;14.62
24586;BMP280;12743;52.262;6.172;2022-09-09T03:17:04;100359.59;;;14.72
24586;BMP280;12743;52.262;6.172;2022-09-09T03:19:35;100362.31;;;14.75
24586;BMP280;12743;52.262;6.172;2022-09-09T03:22:01;100302.56;;;14.37
24586;BMP280;12743;52.262;6.172;2022-09-09T03:24:29;100360.22;;;14.58
24586;BMP280;12743;52.262;6.172;2022-09-09T03:26:55;100349.53;;;14.47
24586;BMP280;12743;52.262;6.172;2022-09-09T03:29:21;100347.59;;;14.44
24586;BMP280;12743;52.262;6.172;2022-09-09T03:31:47;100352.09;;;14.44
24586;BMP280;12743;52.262;6.172;2022-09-09T03:34:13;100346.59;;;14.56
24586;BMP280;12743;52.262;6.172;2022-09-09T03:36:39;100350.09;;;14.34
24586;BMP280;12743;52.262;6.172;2022-09-09T03:39:04;100357.97;;;14.30
24586;BMP280;12743;52.262;6.172;2022-09-09T03:41:30;100354.28;;;14.35
24586;BMP280;12743;52.262;6.172;2022-09-09T03:43:57;100369.94;;;14.50
24586;BMP280;12743;52.262;6.172;2022-09-09T03:46:25;100358.44;;;14.36
24586;BMP280;12743;52.262;6.172;2022-09-09T03:48:52;100361.06;;;14.36
24586;BMP280;12743;52.262;6.172;2022-09-09T03:51:18;100364.88;;;14.38
24586;BMP280;12743;52.262;6.172;2022-09-09T03:53:43;100364.78;;;14.31
24586;BMP280;12743;52.262;6.172;2022-09-09T03:56:09;100360.41;;;14.16
24586;BMP280;12743;52.262;6.172;2022-09-09T03:58:37;100356.59;;;14.14
24586;BMP280;12743;52.262;6.172;2022-09-09T04:01:12;100353.25;;;14.17
24586;BMP280;12743;52.262;6.172;2022-09-09T04:03:43;100361.38;;;14.31
24586;BMP280;12743;52.262;6.172;2022-09-09T04:06:11;100362.28;;;14.42
24586;BMP280;12743;52.262;6.172;2022-09-09T04:08:39;100364.19;;;14.15
24586;BMP280;12743;52.262;6.172;2022-09-09T04:11:06;100359.00;;;14.22
24586;BMP280;12743;52.262;6.172;2022-09-09T04:13:34;100361.69;;;14.26
24586;BMP280;12743;52.262;6.172;2022-09-09T04:16:02;100357.00;;;14.12
24586;BMP280;12743;52.262;6.172;2022-09-09T04:18:29;100363.88;;;14.20
24586;BMP280;12743;52.262;6.172;2022-09-09T04:20:55;100359.56;;;14.35
24586;BMP280;12743;52.262;6.172;2022-09-09T04:23:26;100362.31;;;14.16
24586;BMP280;12743;52.262;6.172;2022-09-09T04:25:56;100327.50;;;14.10
24586;BMP280;12743;52.262;6.172;2022-09-09T04:28:23;100354.50;;;14.26
24586;BMP280;12743;52.262;6.172;2022-09-09T04:30:49;100343.63;;;14.31
24586;BMP280;12743;52.262;6.172;2022-09-09T04:33:16;100344.84;;;14.37
24586;BMP280;12743;52.262;6.172;2022-09-09T04:35:47;100349.47;;;14.44
24586;BMP280;12743;52.262;6.172;2022-09-09T04:38:15;100338.44;;;14.35
24586;BMP280;12743;52.262;6.172;2022-09-09T04:40:46;100327.63;;;14.17
24586;BMP280;12743;52.262;6.172;2022-09-09T04:43:12;100345.50;;;14.31
24586;BMP280;12743;52.262;6.172;2022-09-09T04:45:37;100338.94;;;14.18
24586;BMP280;12743;52.262;6.172;2022-09-09T04:48:03;100346.34;;;14.35
24586;BMP280;12743;52.262;6.172;2022-09-09T04:50:29;100342.50;;;14.29
24586;BMP280;12743;52.262;6.172;2022-09-09T04:53:00;100342.19;;;14.08
24586;BMP280;12743;52.262;6.172;2022-09-09T04:55:27;100346.81;;;14.14
24586;BMP280;12743;52.262;6.172;2022-09-09T04:57:52;100349.22;;;14.26
24586;BMP280;12743;52.262;6.172;2022-09-09T05:00:18;100335.53;;;14.17
24586;BMP280;12743;52.262;6.172;2022-09-09T05:02:45;100341.22;;;14.19
24586;BMP280;12743;52.262;6.172;2022-09-09T05:05:11;100337.41;;;14.17
24586;BMP280;12743;52.262;6.172;2022-09-09T05:07:37;100324.16;;;14.13
24586;BMP280;12743;52.262;6.172;2022-09-09T05:10:03;100342.72;;;14.20
24586;BMP280;12743;52.262;6.172;2022-09-09T05:12:30;100320.50;;;14.21
24586;BMP280;12743;52.262;6.172;2022-09-09T05:14:57;100342.84;;;14.27
24586;BMP280;12743;52.262;6.172;2022-09-09T05:17:23;100314.78;;;14.16
24586;BMP280;12743;52.262;6.172;2022-09-09T05:19:48;100349.78;;;14.39
24586;BMP280;12743;52.262;6.172;2022-09-09T05:22:21;100299.59;;;14.09
24586;BMP280;12743;52.262;6.172;2022-09-09T05:24:49;100336.66;;;14.46
24586;BMP280;12743;52.262;6.172;2022-09-09T05:27:18;100325.75;;;14.47
24586;BMP280;12743;52.262;6.172;2022-09-09T05:29:45;100343.03;;;14.41
24586;BMP280;12743;52.262;6.172;2022-09-09T05:32:12;100334.34;;;14.41
24586;BMP280;12743;52.262;6.172;2022-09-09T05:34:40;100327.31;;;14.52
24586;BMP280;12743;52.262;6.172;2022-09-09T05:37:05;100321.47;;;14.39
24586;BMP280;12743;52.262;6.172;2022-09-09T05:39:33;100318.53;;;14.44
24586;BMP280;12743;52.262;6.172;2022-09-09T05:41:59;100323.56;;;14.57
24586;BMP280;12743;52.262;6.172;2022-09-09T05:44:24;100317.88;;;14.55
24586;BMP280;12743;52.262;6.172;2022-09-09T05:46:53;100334.47;;;14.52
24586;BMP280;12743;52.262;6.172;2022-09-09T05:49:20;100323.00;;;14.40
24586;BMP280;12743;52.262;6.172;2022-09-09T05:51:47;100284.25;;;14.18
24586;BMP280;12743;52.262;6.172;2022-09-09T05:54:14;100337.44;;;14.50
24586;BMP280;12743;52.262;6.172;2022-09-09T05:56:43;100344.66;;;14.53
24586;BMP280;12743;52.262;6.172;2022-09-09T05:59:09;100332.22;;;14.54
24586;BMP280;12743;52.262;6.172;2022-09-09T06:01:36;100339.06;;;14.58
24586;BMP280;12743;52.262;6.172;2022-09-09T06:04:06;100345.91;;;14.63
24586;BMP280;12743;52.262;6.172;2022-09-09T06:06:34;100345.94;;;14.66
24586;BMP280;12743;52.262;6.172;2022-09-09T06:09:04;100351.22;;;14.66
24586;BMP280;12743;52.262;6.172;2022-09-09T06:11:35;100344.50;;;14.72
24586;BMP280;12743;52.262;6.172;2022-09-09T06:14:02;100339.81;;;14.88
24586;BMP280;12743;52.262;6.172;2022-09-09T06:16:31;100340.91;;;14.87
24586;BMP280;12743;52.262;6.172;2022-09-09T06:18:59;100342.31;;;14.78
24586;BMP280;12743;52.262;6.172;2022-09-09T06:21:29;100342.69;;;14.80
24586;BMP280;12743;52.262;6.172;2022-09-09T06:23:56;100338.16;;;14.77
24586;BMP280;12743;52.262;6.172;2022-09-09T06:26:23;100355.22;;;14.86
24586;BMP280;12743;52.262;6.172;2022-09-09T06:28:51;100352.88;;;14.78
24586;BMP280;12743;52.262;6.172;2022-09-09T06:31:20;100347.53;;;14.71
24586;BMP280;12743;52.262;6.172;2022-09-09T06:33:50;100344.50;;;14.72
24586;BMP280;12743;52.262;6.172;2022-09-09T06:36:18;100338.00;;;14.66
24586;BMP280;12743;52.262;6.172;2022-09-09T06:38:45;100341.50;;;14.74
24586;BMP280;12743;52.262;6.172;2022-09-09T06:41:13;100347.66;;;14.81
24586;BMP280;12743;52.262;6.172;2022-09-09T06:43:39;100324.56;;;14.78
24586;BMP280;12743;52.262;6.172;2022-09-09T06:46:08;100350.41;;;14.92
24586;BMP280;12743;52.262;6.172;2022-09-09T06:48:35;100344.78;;;14.97
24586;BMP280;12743;52.262;6.172;2022-09-09T06:51:06;100349.41;;;15.07
24586;BMP280;12743;52.262;6.172;2022-09-09T06:53:36;100358.16;;;15.11
24586;BMP280;12743;52.262;6.172;2022-09-09T06:56:13;100310.75;;;14.92
24586;BMP280;12743;52.262;6.172;2022-09-09T06:58:43;100353.16;;;15.46
24586;BMP280;12743;52.262;6.172;2022-09-09T07:01:13;100346.72;;;15.44
24586;BMP280;12743;52.262;6.172;2022-09-09T07:03:39;100353.13;;;15.43
24586;BMP280;12743;52.262;6.172;2022-09-09T07:06:05;100348.47;;;15.29
24586;BMP280;12743;52.262;6.172;2022-09-09T07:08:33;100335.53;;;15.17
24586;BMP280;12743;52.262;6.172;2022-09-09T07:11:06;100350.47;;;15.39
24586;BMP280;12743;52.262;6.172;2022-09-09T07:13:35;100350.47;;;15.43
24586;BMP280;12743;52.262;6.172;2022-09-09T07:16:13;100344.84;;;15.48
24586;BMP280;12743;52.262;6.172;2022-09-09T07:18:40;100360.75;;;15.51
24586;BMP280;12743;52.262;6.172;2022-09-09T07:21:05;100348.28;;;15.48
24586;BMP280;12743;52.262;6.172;2022-09-09T07:23:32;100357.41;;;15.58
24586;BMP280;12743;52.262;6.172;2022-09-09T07:25:58;100347.94;;;15.57
24586;BMP280;12743;52.262;6.172;2022-09-09T07:28:24;100346.03;;;15.50
24586;BMP280;12743;52.262;6.172;2022-09-09T07:33:21;100348.78;;;15.71
24586;BMP280;12743;52.262;6.172;2022-09-09T07:35:46;100363.59;;;15.79
24586;BMP280;12743;52.262;6.172;2022-09-09T07:38:11;100373.16;;;15.91
24586;BMP280;12743;52.262;6.172;2022-09-09T07:40:37;100326.16;;;15.77
24586;BMP280;12743;52.262;6.172;2022-09-09T07:43:03;100359.22;;;16.01
24586;BMP280;12743;52.262;6.172;2022-09-09T07:45:29;100363.34;;;15.98
24586;BMP280;12743;52.262;6.172;2022-09-09T07:47:57;100365.31;;;16.12
24586;BMP280;12743;52.262;6.172;2022-09-09T07:50:24;100370.97;;;16.10
24586;BMP280;12743;52.262;6.172;2022-09-09T07:52:51;100355.47;;;16.09
24586;BMP280;12743;52.262;6.172;2022-09-09T07:55:17;100350.19;;;16.16
24586;BMP280;12743;52.262;6.172;2022-09-09T07:57:43;100348.38;;;16.38
24586;BMP280;12743;52.262;6.172;2022-09-09T08:00:09;100331.75;;;16.34
24586;BMP280;12743;52.262;6.172;2022-09-09T08:02:41;100345.78;;;16.52
24586;BMP280;12743;52.262;6.172;2022-09-09T08:05:08;100339.03;;;16.79
24586;BMP280;12743;52.262;6.172;2022-09-09T08:07:35;100338.25;;;16.54
24586;BMP280;12743;52.262;6.172;2022-09-09T08:10:02;100354.88;;;16.58
24586;BMP280;12743;52.262;6.172;2022-09-09T08:12:30;100350.00;;;16.67
24586;BMP280;12743;52.262;6.172;2022-09-09T08:14:56;100348.91;;;16.85
24586;BMP280;12743;52.262;6.172;2022-09-09T08:17:24;100349.28;;;16.84
24586;BMP280;12743;52.262;6.172;2022-09-09T08:19:49;100353.38;;;16.64
24586;BMP280;12743;52.262;6.172;2022-09-09T08:22:20;100329.13;;;16.55
24586;BMP280;12743;52.262;6.172;2022-09-09T08:24:46;100355.72;;;16.76
24586;BMP280;12743;52.262;6.172;2022-09-09T08:27:12;100357.63;;;17.03
24586;BMP280;12743;52.262;6.172;2022-09-09T08:29:38;100361.78;;;16.94
24586;BMP280;12743;52.262;6.172;2022-09-09T08:32:03;100354.97;;;16.86
24586;BMP280;12743;52.262;6.172;2022-09-09T08:34:30;100361.38;;;16.71
24586;BMP280;12743;52.262;6.172;2022-09-09T08:36:58;100361.78;;;16.80
24586;BMP280;12743;52.262;6.172;2022-09-09T08:39:31;100356.88;;;16.89
24586;BMP280;12743;52.262;6.172;2022-09-09T08:42:16;100366.78;;;17.06
24586;BMP280;12743;52.262;6.172;2022-09-09T08:45:09;100359.94;;;17.19
24586;BMP280;12743;52.262;6.172;2022-09-09T08:47:55;100371.31;;;17.58
24586;BMP280;12743;52.262;6.172;2022-09-09T08:50:28;100383.41;;;17.63
24586;BMP280;12743;52.262;6.172;2022-09-09T08:58:17;100362.50;;;17.89
24586;BMP280;12743;52.262;6.172;2022-09-09T09:00:57;100362.41;;;18.21
24586;BMP280;12743;52.262;6.172;2022-09-09T09:03:42;100371.22;;;17.94
24586;BMP280;12743;52.262;6.172;2022-09-09T09:11:57;100386.06;;;17.70
24586;BMP280;12743;52.262;6.172;2022-09-09T09:14:31;100386.84;;;17.70
24586;BMP280;12743;52.262;6.172;2022-09-09T09:17:15;100389.47;;;17.67
24586;BMP280;12743;52.262;6.172;2022-09-09T09:19:42;100388.34;;;17.61
24586;BMP280;12743;52.262;6.172;2022-09-09T09:22:31;100392.94;;;17.39
24586;BMP280;12743;52.262;6.172;2022-09-09T09:27:51;100391.41;;;17.59
24586;BMP280;12743;52.262;6.172;2022-09-09T09:30:21;100394.44;;;17.54
24586;BMP280;12743;52.262;6.172;2022-09-09T09:32:54;100392.91;;;17.50
24586;BMP280;12743;52.262;6.172;2022-09-09T09:35:20;100393.66;;;17.61
24586;BMP280;12743;52.262;6.172;2022-09-09T09:37:47;100394.09;;;17.45
24586;BMP280;12743;52.262;6.172;2022-09-09T09:40:16;100402.41;;;17.54
24586;BMP280;12743;52.262;6.172;2022-09-09T09:42:57;100395.19;;;17.58
24586;BMP280;12743;52.262;6.172;2022-09-09T09:45:33;100400.13;;;17.63
24586;BMP280;12743;52.262;6.172;2022-09-09T09:48:06;100396.31;;;17.61
24586;BMP280;12743;52.262;6.172;2022-09-09T09:50:33;100389.91;;;17.41
24586;BMP280;12743;52.262;6.172;2022-09-09T09:53:04;100399.75;;;17.33
24586;BMP280;12743;52.262;6.172;2022-09-09T09:55:48;100384.56;;;17.48
24586;BMP280;12743;52.262;6.172;2022-09-09T09:58:15;100374.34;;;17.39
24586;BMP280;12743;52.262;6.172;2022-09-09T10:00:52;100400.53;;;17.55
24586;BMP280;12743;52.262;6.172;2022-09-09T10:03:29;100397.81;;;17.76
24586;BMP280;12743;52.262;6.172;2022-09-09T10:05:57;100398.22;;;17.64
24586;BMP280;12743;52.262;6.172;2022-09-09T10:08:24;100402.41;;;17.72
24586;BMP280;12743;52.262;6.172;2022-09-09T10:11:06;100395.16;;;17.86
24586;BMP280;12743;52.262;6.172;2022-09-09T10:19:10;100388.34;;;17.89
24586;BMP280;12743;52.262;6.172;2022-09-09T10:21:59;100396.31;;;17.89
24586;BMP280;12743;52.262;6.172;2022-09-09T10:24:50;100395.19;;;17.72
24586;BMP280;12743;52.262;6.172;2022-09-09T10:32:30;100388.69;;;18.02
24586;BMP280;12743;52.262;6.172;2022-09-09T10:35:08;100402.31;;;18.07
24586;BMP280;12743;52.262;6.172;2022-09-09T10:40:26;100394.19;;;18.46
24586;BMP280;12743;52.262;6.172;2022-09-09T10:43:02;100396.50;;;18.40
24586;BMP280;12743;52.262;6.172;2022-09-09T10:45:59;100392.81;;;18.17
24586;BMP280;12743;52.262;6.172;2022-09-09T10:51:36;100381.81;;;18.04
24586;BMP280;12743;52.262;6.172;2022-09-09T10:57:20;100379.53;;;17.99
24586;BMP280;12743;52.262;6.172;2022-09-09T10:59:52;100386.38;;;18.11
24586;BMP280;12743;52.262;6.172;2022-09-09T11:02:29;100391.66;;;18.18
24586;BMP280;12743;52.262;6.172;2022-09-09T11:05:12;100384.44;;;18.15
24586;BMP280;12743;52.262;6.172;2022-09-09T11:07:55;100389.03;;;18.07
24586;BMP280;12743;52.262;6.172;2022-09-09T11:10:44;100379.94;;;18.01
24586;BMP280;12743;52.262;6.172;2022-09-09T11:13:33;100379.22;;;17.83
24586;BMP280;12743;52.262;6.172;2022-09-09T11:18:49;100388.31;;;17.92
24586;BMP280;12743;52.262;6.172;2022-09-09T11:21:34;100392.09;;;18.02
24586;BMP280;12743;52.262;6.172;2022-09-09T11:24:08;100376.53;;;17.94
24586;BMP280;12743;52.262;6.172;2022-09-09T11:26:42;100381.84;;;17.97
24586;BMP280;12743;52.262;6.172;2022-09-09T11:40:16;100388.19;;;18.35
24586;BMP280;12743;52.262;6.172;2022-09-09T11:42:42;100387.84;;;18.22
24586;BMP280;12743;52.262;6.172;2022-09-09T11:45:27;100381.81;;;18.11
24586;BMP280;12743;52.262;6.172;2022-09-09T11:47:59;100388.28;;;17.96
24586;BMP280;12743;52.262;6.172;2022-09-09T11:52:50;100373.75;;;18.29
24586;BMP280;12743;52.262;6.172;2022-09-09T11:55:31;100358.94;;;18.35
24586;BMP280;12743;52.262;6.172;2022-09-09T11:57:59;100375.97;;;18.48
24586;BMP280;12743;52.262;6.172;2022-09-09T12:00:49;100372.16;;;18.45
24586;BMP280;12743;52.262;6.172;2022-09-09T12:06:28;100391.34;;;17.95
24586;BMP280;12743;52.262;6.172;2022-09-09T12:09:27;100361.06;;;17.11
24586;BMP280;12743;52.262;6.172;2022-09-09T12:11:50;100358.78;;;16.92
24586;BMP280;12743;52.262;6.172;2022-09-09T12:19:39;100380.03;;;17.48
24586;BMP280;12743;52.262;6.172;2022-09-09T12:22:20;100382.28;;;17.67
24586;BMP280;12743;52.262;6.172;2022-09-09T12:24:57;100361.03;;;17.67
24586;BMP280;12743;52.262;6.172;2022-09-09T12:27:35;100375.09;;;17.75
24586;BMP280;12743;52.262;6.172;2022-09-09T12:30:09;100384.50;;;17.86
24586;BMP280;12743;52.262;6.172;2022-09-09T12:32:36;100398.34;;;18.54
24586;BMP280;12743;52.262;6.172;2022-09-09T12:35:11;100394.06;;;18.70
24586;BMP280;12743;52.262;6.172;2022-09-09T12:37:50;100397.66;;;18.36
24586;BMP280;12743;52.262;6.172;2022-09-09T12:42:48;100378.72;;;18.27
24586;BMP280;12743;52.262;6.172;2022-09-09T12:45:25;100381.72;;;18.29
24586;BMP280;12743;52.262;6.172;2022-09-09T12:48:08;100384.06;;;18.09
24586;BMP280;12743;52.262;6.172;2022-09-09T12:50:37;100364.81;;;17.77
24586;BMP280;12743;52.262;6.172;2022-09-09T12:53:07;100385.25;;;18.01
24586;BMP280;12743;52.262;6.172;2022-09-09T12:55:38;100369.63;;;18.17
24586;BMP280;12743;52.262;6.172;2022-09-09T12:58:05;100353.75;;;17.96
24586;BMP280;12743;52.262;6.172;2022-09-09T13:00:32;100368.81;;;18.31
24586;BMP280;12743;52.262;6.172;2022-09-09T13:03:00;100344.66;;;17.94
24586;BMP280;12743;52.262;6.172;2022-09-09T13:05:37;100363.19;;;18.15
24586;BMP280;12743;52.262;6.172;2022-09-09T13:08:04;100369.28;;;18.15
24586;BMP280;12743;52.262;6.172;2022-09-09T13:10:33;100366.19;;;18.27
24586;BMP280;12743;52.262;6.172;2022-09-09T13:12:59;100367.75;;;18.18
24586;BMP280;12743;52.262;6.172;2022-09-09T13:15:26;100360.53;;;18.15
24586;BMP280;12743;52.262;6.172;2022-09-09T13:17:58;100353.00;;;17.96
24586;BMP280;12743;52.262;6.172;2022-09-09T13:20:26;100353.75;;;17.92
24586;BMP280;12743;52.262;6.172;2022-09-09T13:22:53;100358.25;;;18.10
24586;BMP280;12743;52.262;6.172;2022-09-09T13:25:25;100356.59;;;18.44
24586;BMP280;12743;52.262;6.172;2022-09-09T13:30:34;100348.91;;;18.63
24586;BMP280;12743;52.262;6.172;2022-09-09T13:35:49;100334.28;;;18.24
24586;BMP280;12743;52.262;6.172;2022-09-09T13:38:15;100338.75;;;18.44
24586;BMP280;12743;52.262;6.172;2022-09-09T13:40:52;100337.19;;;18.54
24586;BMP280;12743;52.262;6.172;2022-09-09T13:43:22;100341.78;;;18.43
24586;BMP280;12743;52.262;6.172;2022-09-09T13:45:58;100347.91;;;18.29
24586;BMP280;12743;52.262;6.172;2022-09-09T13:48:24;100341.44;;;18.34
24586;BMP280;12743;52.262;6.172;2022-09-09T13:50:55;100347.91;;;18.36
24586;BMP280;12743;52.262;6.172;2022-09-09T13:53:21;100345.66;;;18.28
24586;BMP280;12743;52.262;6.172;2022-09-09T13:55:46;100338.16;;;18.05
24586;BMP280;12743;52.262;6.172;2022-09-09T13:58:15;100340.84;;;17.98
24586;BMP280;12743;52.262;6.172;2022-09-09T14:00:42;100330.25;;;17.87
24586;BMP280;12743;52.262;6.172;2022-09-09T14:03:08;100344.34;;;17.70
24586;BMP280;12743;52.262;6.172;2022-09-09T14:05:34;100353.34;;;18.05
24586;BMP280;12743;52.262;6.172;2022-09-09T14:07:59;100344.66;;;18.69
24586;BMP280;12743;52.262;6.172;2022-09-09T14:10:28;100341.53;;;18.81
24586;BMP280;12743;52.262;6.172;2022-09-09T14:12:53;100344.88;;;18.93
24586;BMP280;12743;52.262;6.172;2022-09-09T14:15:18;100320.31;;;18.74
24586;BMP280;12743;52.262;6.172;2022-09-09T14:17:44;100336.88;;;18.93
24586;BMP280;12743;52.262;6.172;2022-09-09T14:20:10;100326.44;;;18.71
24586;BMP280;12743;52.262;6.172;2022-09-09T14:22:37;100342.50;;;18.47
24586;BMP280;12743;52.262;6.172;2022-09-09T14:25:04;100337.78;;;18.75
24586;BMP280;12743;52.262;6.172;2022-09-09T14:27:30;100343.03;;;18.86
24586;BMP280;12743;52.262;6.172;2022-09-09T14:29:55;100344.59;;;18.80
24586;BMP280;12743;52.262;6.172;2022-09-09T14:32:22;100340.31;;;18.38
24586;BMP280;12743;52.262;6.172;2022-09-09T14:34:47;100330.00;;;18.44
24586;BMP280;12743;52.262;6.172;2022-09-09T14:37:18;100338.28;;;18.56
24586;BMP280;12743;52.262;6.172;2022-09-09T14:39:43;100331.94;;;18.36
24586;BMP280;12743;52.262;6.172;2022-09-09T14:42:16;100338.34;;;18.42
24586;BMP280;12743;52.262;6.172;2022-09-09T14:44:41;100338.00;;;18.40
24586;BMP280;12743;52.262;6.172;2022-09-09T14:47:07;100345.66;;;18.28
24586;BMP280;12743;52.262;6.172;2022-09-09T14:49:33;100334.97;;;18.38
24586;BMP280;12743;52.262;6.172;2022-09-09T14:51:59;100342.59;;;18.33
24586;BMP280;12743;52.262;6.172;2022-09-09T14:54:24;100331.56;;;18.38
24586;BMP280;12743;52.262;6.172;2022-09-09T14:56:50;100313.00;;;18.27
24586;BMP280;12743;52.262;6.172;2022-09-09T14:59:15;100334.31;;;18.20
24586;BMP280;12743;52.262;6.172;2022-09-09T15:01:41;100338.56;;;17.97
24586;BMP280;12743;52.262;6.172;2022-09-09T15:04:06;100344.34;;;17.56
24586;BMP280;12743;52.262;6.172;2022-09-09T15:06:34;100347.81;;;17.29
24586;BMP280;12743;52.262;6.172;2022-09-09T15:09:01;100349.28;;;17.33
24586;BMP280;12743;52.262;6.172;2022-09-09T15:11:28;100328.09;;;17.16
24586;BMP280;12743;52.262;6.172;2022-09-09T15:13:55;100314.06;;;17.01
24586;BMP280;12743;52.262;6.172;2022-09-09T15:16:27;100324.66;;;17.08
24586;BMP280;12743;52.262;6.172;2022-09-09T15:18:54;100334.53;;;17.22
24586;BMP280;12743;52.262;6.172;2022-09-09T15:21:21;100336.03;;;17.33
24586;BMP280;12743;52.262;6.172;2022-09-09T15:23:48;100350.44;;;17.32
24586;BMP280;12743;52.262;6.172;2022-09-09T15:26:13;100350.44;;;17.46
24586;BMP280;12743;52.262;6.172;2022-09-09T15:28:40;100334.84;;;17.69
24586;BMP280;12743;52.262;6.172;2022-09-09T15:31:09;100317.41;;;17.68
24586;BMP280;12743;52.262;6.172;2022-09-09T15:33:35;100325.75;;;17.74
24586;BMP280;12743;52.262;6.172;2022-09-09T15:36:16;100326.84;;;17.83
24586;BMP280;12743;52.262;6.172;2022-09-09T15:38:42;100320.84;;;17.62
24586;BMP280;12743;52.262;6.172;2022-09-09T15:41:07;100311.34;;;17.57
24586;BMP280;12743;52.262;6.172;2022-09-09T15:43:32;100322.00;;;17.50
24586;BMP280;12743;52.262;6.172;2022-09-09T15:46:27;100321.22;;;17.64
24586;BMP280;12743;52.262;6.172;2022-09-09T15:48:57;100324.63;;;17.75
24586;BMP280;12743;52.262;6.172;2022-09-09T15:51:39;100321.94;;;17.82
24586;BMP280;12743;52.262;6.172;2022-09-09T15:54:05;100317.78;;;17.70
24586;BMP280;12743;52.262;6.172;2022-09-09T15:56:31;100316.22;;;17.83
24586;BMP280;12743;52.262;6.172;2022-09-09T15:58:58;100301.84;;;17.67
24586;BMP280;12743;52.262;6.172;2022-09-09T16:01:27;100326.47;;;17.88
24586;BMP280;12743;52.262;6.172;2022-09-09T16:03:57;100330.63;;;17.93
24586;BMP280;12743;52.262;6.172;2022-09-09T16:06:24;100329.09;;;17.96
24586;BMP280;12743;52.262;6.172;2022-09-09T16:08:51;100314.31;;;17.80
24586;BMP280;12743;52.262;6.172;2022-09-09T16:11:22;100320.41;;;17.88